sensor_id;sensor_type;location;lat;lon;timestamp;temperature;humidity
66026;SHT31;56312;55.976;37.136;2024-03-08T00:05:05;-5.91;65.00
66026;SHT31;56312;55.976;37.136;2024-03-08T00:10:12;-5.91;65.00
66026;SHT31;56312;55.976;37.136;2024-03-08T00:15:18;-6.03;64.99
66026;SHT31;56312;55.976;37.136;2024-03-08T00:20:24;-5.95;65.25
66026;SHT31;56312;55.976;37.136;2024-03-08T00:25:30;-5.77;65.30
66026;SHT31;56312;55.976;37.136;2024-03-08T00:30:36;-5.75;65.27
66026;SHT31;56312;55.976;37.136;2024-03-08T00:35:43;-5.76;65.36
66026;SHT31;56312;55.976;37.136;2024-03-08T00:40:49;-5.69;65.36
66026;SHT31;56312;55.976;37.136;2024-03-08T00:45:55;-5.73;65.31
66026;SHT31;56312;55.976;37.136;2024-03-08T00:51:01;-5.65;65.53
66026;SHT31;56312;55.976;37.136;2024-03-08T00:56:08;-5.46;65.63
66026;SHT31;56312;55.976;37.136;2024-03-08T01:01:15;-5.31;65.70
66026;SHT31;56312;55.976;37.136;2024-03-08T01:06:21;-5.22;65.66
66026;SHT31;56312;55.976;37.136;2024-03-08T01:11:27;-5.17;65.70
66026;SHT31;56312;55.976;37.136;2024-03-08T01:16:36;-5.15;65.68
66026;SHT31;56312;55.976;37.136;2024-03-08T01:21:42;-5.21;65.61
66026;SHT31;56312;55.976;37.136;2024-03-08T01:26:48;-5.36;65.56
66026;SHT31;56312;55.976;37.136;2024-03-08T01:31:54;-5.54;65.61
66026;SHT31;56312;55.976;37.136;2024-03-08T01:37:00;-5.70;65.62
66026;SHT31;56312;55.976;37.136;2024-03-08T01:42:06;-5.77;65.70
66026;SHT31;56312;55.976;37.136;2024-03-08T01:47:12;-5.79;65.84
66026;SHT31;56312;55.976;37.136;2024-03-08T01:52:18;-5.84;65.82
66026;SHT31;56312;55.976;37.136;2024-03-08T01:57:27;-5.79;65.95
66026;SHT31;56312;55.976;37.136;2024-03-08T02:02:34;-5.66;66.01
66026;SHT31;56312;55.976;37.136;2024-03-08T02:07:41;-5.66;66.09
66026;SHT31;56312;55.976;37.136;2024-03-08T02:12:50;-5.65;66.16
66026;SHT31;56312;55.976;37.136;2024-03-08T02:17:56;-5.58;66.26
66026;SHT31;56312;55.976;37.136;2024-03-08T02:23:02;-5.55;66.31
66026;SHT31;56312;55.976;37.136;2024-03-08T02:28:10;-5.54;66.39
66026;SHT31;56312;55.976;37.136;2024-03-08T02:33:17;-5.59;66.42
66026;SHT31;56312;55.976;37.136;2024-03-08T02:38:23;-5.56;66.47
66026;SHT31;56312;55.976;37.136;2024-03-08T02:43:29;-5.56;66.52
66026;SHT31;56312;55.976;37.136;2024-03-08T02:48:35;-5.58;66.63
66026;SHT31;56312;55.976;37.136;2024-03-08T02:53:41;-5.55;66.72
66026;SHT31;56312;55.976;37.136;2024-03-08T02:58:48;-5.56;66.91
66026;SHT31;56312;55.976;37.136;2024-03-08T03:03:54;-5.55;67.00
66026;SHT31;56312;55.976;37.136;2024-03-08T03:09:00;-5.55;67.07
66026;SHT31;56312;55.976;37.136;2024-03-08T03:14:06;-5.60;67.16
66026;SHT31;56312;55.976;37.136;2024-03-08T03:19:12;-5.62;67.29
66026;SHT31;56312;55.976;37.136;2024-03-08T03:24:18;-5.62;67.33
66026;SHT31;56312;55.976;37.136;2024-03-08T03:29:26;-5.59;67.48
66026;SHT31;56312;55.976;37.136;2024-03-08T03:34:32;-5.52;67.53
66026;SHT31;56312;55.976;37.136;2024-03-08T03:39:39;-5.48;67.52
66026;SHT31;56312;55.976;37.136;2024-03-08T03:44:54;-5.45;67.59
66026;SHT31;56312;55.976;37.136;2024-03-08T03:50:00;-5.43;67.63
66026;SHT31;56312;55.976;37.136;2024-03-08T03:55:08;-5.46;67.68
66026;SHT31;56312;55.976;37.136;2024-03-08T04:00:14;-5.38;67.79
66026;SHT31;56312;55.976;37.136;2024-03-08T04:05:20;-5.38;67.82
66026;SHT31;56312;55.976;37.136;2024-03-08T04:10:26;-5.38;67.98
66026;SHT31;56312;55.976;37.136;2024-03-08T04:15:32;-5.34;68.05
66026;SHT31;56312;55.976;37.136;2024-03-08T04:20:38;-5.29;68.09
66026;SHT31;56312;55.976;37.136;2024-03-08T04:25:45;-5.27;68.20
66026;SHT31;56312;55.976;37.136;2024-03-08T04:30:52;-5.22;68.28
66026;SHT31;56312;55.976;37.136;2024-03-08T04:35:58;-5.28;68.36
66026;SHT31;56312;55.976;37.136;2024-03-08T04:41:04;-5.18;68.41
66026;SHT31;56312;55.976;37.136;2024-03-08T04:46:09;-5.17;68.46
66026;SHT31;56312;55.976;37.136;2024-03-08T04:51:15;-5.11;68.53
66026;SHT31;56312;55.976;37.136;2024-03-08T04:56:21;-4.97;68.58
66026;SHT31;56312;55.976;37.136;2024-03-08T05:01:27;-5.01;68.50
66026;SHT31;56312;55.976;37.136;2024-03-08T05:06:33;-5.12;68.54
66026;SHT31;56312;55.976;37.136;2024-03-08T05:11:40;-5.04;68.68
66026;SHT31;56312;55.976;37.136;2024-03-08T05:16:46;-4.93;68.65
66026;SHT31;56312;55.976;37.136;2024-03-08T05:21:55;-4.80;68.71
66026;SHT31;56312;55.976;37.136;2024-03-08T05:27:01;-4.70;68.65
66026;SHT31;56312;55.976;37.136;2024-03-08T05:32:08;-4.68;68.60
66026;SHT31;56312;55.976;37.136;2024-03-08T05:37:15;-4.66;68.65
66026;SHT31;56312;55.976;37.136;2024-03-08T05:42:21;-4.56;68.69
66026;SHT31;56312;55.976;37.136;2024-03-08T05:47:27;-4.44;68.67
66026;SHT31;56312;55.976;37.136;2024-03-08T05:52:33;-4.29;68.67
66026;SHT31;56312;55.976;37.136;2024-03-08T05:57:39;-4.15;68.60
66026;SHT31;56312;55.976;37.136;2024-03-08T06:02:45;-4.04;68.64
66026;SHT31;56312;55.976;37.136;2024-03-08T06:07:51;-3.91;68.63
66026;SHT31;56312;55.976;37.136;2024-03-08T06:12:59;-3.91;68.54
66026;SHT31;56312;55.976;37.136;2024-03-08T06:18:05;-3.79;68.57
66026;SHT31;56312;55.976;37.136;2024-03-08T06:23:11;-3.63;68.64
66026;SHT31;56312;55.976;37.136;2024-03-08T06:28:17;-3.49;68.54
66026;SHT31;56312;55.976;37.136;2024-03-08T06:33:23;-3.36;68.55
66026;SHT31;56312;55.976;37.136;2024-03-08T06:38:29;-3.30;68.50
66026;SHT31;56312;55.976;37.136;2024-03-08T06:43:36;-3.19;68.43
66026;SHT31;56312;55.976;37.136;2024-03-08T06:48:43;-3.09;68.46
66026;SHT31;56312;55.976;37.136;2024-03-08T06:53:49;-3.03;68.40
66026;SHT31;56312;55.976;37.136;2024-03-08T06:58:55;-2.93;68.35
66026;SHT31;56312;55.976;37.136;2024-03-08T07:04:01;-2.79;68.38
66026;SHT31;56312;55.976;37.136;2024-03-08T07:09:10;-2.69;68.38
66026;SHT31;56312;55.976;37.136;2024-03-08T07:14:17;-2.63;68.25
66026;SHT31;56312;55.976;37.136;2024-03-08T07:19:23;-2.66;68.24
66026;SHT31;56312;55.976;37.136;2024-03-08T07:24:30;-2.56;68.37
66026;SHT31;56312;55.976;37.136;2024-03-08T07:30:02;-2.52;68.30
66026;SHT31;56312;55.976;37.136;2024-03-08T07:35:10;-2.50;68.23
66026;SHT31;56312;55.976;37.136;2024-03-08T07:40:16;-2.38;68.32
66026;SHT31;56312;55.976;37.136;2024-03-08T07:45:23;-2.28;68.30
66026;SHT31;56312;55.976;37.136;2024-03-08T07:50:29;-2.17;68.33
66026;SHT31;56312;55.976;37.136;2024-03-08T07:55:36;-2.12;68.27
66026;SHT31;56312;55.976;37.136;2024-03-08T08:00:42;-1.94;68.31
66026;SHT31;56312;55.976;37.136;2024-03-08T08:05:48;-1.77;68.26
66026;SHT31;56312;55.976;37.136;2024-03-08T08:10:54;-1.74;68.17
66026;SHT31;56312;55.976;37.136;2024-03-08T08:16:00;-1.74;68.11
66026;SHT31;56312;55.976;37.136;2024-03-08T08:21:06;-1.73;68.12
66026;SHT31;56312;55.976;37.136;2024-03-08T08:26:12;-1.70;68.13
66026;SHT31;56312;55.976;37.136;2024-03-08T08:31:18;-1.74;68.10
66026;SHT31;56312;55.976;37.136;2024-03-08T08:36:25;-1.79;68.07
66026;SHT31;56312;55.976;37.136;2024-03-08T08:41:31;-1.70;68.19
66026;SHT31;56312;55.976;37.136;2024-03-08T08:46:38;-1.65;68.18
66026;SHT31;56312;55.976;37.136;2024-03-08T08:51:51;-1.59;68.19
66026;SHT31;56312;55.976;37.136;2024-03-08T08:56:57;-1.41;68.25
66026;SHT31;56312;55.976;37.136;2024-03-08T09:02:04;-1.22;68.21
66026;SHT31;56312;55.976;37.136;2024-03-08T09:07:10;-1.09;68.09
66026;SHT31;56312;55.976;37.136;2024-03-08T09:12:17;-0.81;68.24
66026;SHT31;56312;55.976;37.136;2024-03-08T09:17:23;-0.77;68.01
66026;SHT31;56312;55.976;37.136;2024-03-08T09:22:29;-0.69;67.91
66026;SHT31;56312;55.976;37.136;2024-03-08T09:27:35;-0.81;67.80
66026;SHT31;56312;55.976;37.136;2024-03-08T09:32:41;-0.83;67.88
66026;SHT31;56312;55.976;37.136;2024-03-08T09:37:49;-0.80;67.86
66026;SHT31;56312;55.976;37.136;2024-03-08T09:42:57;-0.73;67.85
66026;SHT31;56312;55.976;37.136;2024-03-08T09:48:03;-0.59;67.97
66026;SHT31;56312;55.976;37.136;2024-03-08T09:53:11;-0.49;67.88
66026;SHT31;56312;55.976;37.136;2024-03-08T09:58:17;-0.48;67.81
66026;SHT31;56312;55.976;37.136;2024-03-08T10:03:23;-0.43;67.87
66026;SHT31;56312;55.976;37.136;2024-03-08T10:08:31;-0.39;67.83
66026;SHT31;56312;55.976;37.136;2024-03-08T10:13:38;-0.32;67.86
66026;SHT31;56312;55.976;37.136;2024-03-08T10:18:46;-0.29;67.85
66026;SHT31;56312;55.976;37.136;2024-03-08T10:23:52;-0.19;67.84
66026;SHT31;56312;55.976;37.136;2024-03-08T10:28:59;-0.17;67.71
66026;SHT31;56312;55.976;37.136;2024-03-08T10:34:05;-0.04;67.78
66026;SHT31;56312;55.976;37.136;2024-03-08T10:39:24;-0.02;67.74
66026;SHT31;56312;55.976;37.136;2024-03-08T10:50:10;-0.05;67.76
66026;SHT31;56312;55.976;37.136;2024-03-08T10:55:19;0.09;67.81
66026;SHT31;56312;55.976;37.136;2024-03-08T11:00:28;0.13;67.75
66026;SHT31;56312;55.976;37.136;2024-03-08T11:05:41;0.36;67.79
66026;SHT31;56312;55.976;37.136;2024-03-08T11:10:49;0.44;67.59
66026;SHT31;56312;55.976;37.136;2024-03-08T11:15:59;0.45;67.61
66026;SHT31;56312;55.976;37.136;2024-03-08T11:21:09;0.55;67.64
66026;SHT31;56312;55.976;37.136;2024-03-08T11:26:20;0.65;67.51
66026;SHT31;56312;55.976;37.136;2024-03-08T11:31:26;0.66;67.51
66026;SHT31;56312;55.976;37.136;2024-03-08T11:36:34;0.74;67.27
66026;SHT31;56312;55.976;37.136;2024-03-08T11:41:43;0.74;67.27
66026;SHT31;56312;55.976;37.136;2024-03-08T11:46:51;0.75;67.31
66026;SHT31;56312;55.976;37.136;2024-03-08T11:51:57;0.74;67.27
66026;SHT31;56312;55.976;37.136;2024-03-08T11:57:03;0.64;67.08
66026;SHT31;56312;55.976;37.136;2024-03-08T12:02:09;0.85;67.35
66026;SHT31;56312;55.976;37.136;2024-03-08T12:07:16;0.95;67.18
66026;SHT31;56312;55.976;37.136;2024-03-08T12:12:24;0.91;67.01
66026;SHT31;56312;55.976;37.136;2024-03-08T12:17:30;0.86;66.99
66026;SHT31;56312;55.976;37.136;2024-03-08T12:22:41;0.82;67.05
66026;SHT31;56312;55.976;37.136;2024-03-08T12:27:47;0.85;66.90
66026;SHT31;56312;55.976;37.136;2024-03-08T12:32:55;0.89;66.95
66026;SHT31;56312;55.976;37.136;2024-03-08T12:38:02;0.83;66.81
66026;SHT31;56312;55.976;37.136;2024-03-08T12:43:08;0.74;66.80
66026;SHT31;56312;55.976;37.136;2024-03-08T12:48:14;0.81;66.90
66026;SHT31;56312;55.976;37.136;2024-03-08T12:53:21;0.79;66.88
66026;SHT31;56312;55.976;37.136;2024-03-08T12:58:28;0.78;66.85
66026;SHT31;56312;55.976;37.136;2024-03-08T13:03:35;0.60;66.77
66026;SHT31;56312;55.976;37.136;2024-03-08T13:08:41;0.47;66.76
66026;SHT31;56312;55.976;37.136;2024-03-08T13:13:49;0.40;66.89
66026;SHT31;56312;55.976;37.136;2024-03-08T13:18:55;0.38;67.05
66026;SHT31;56312;55.976;37.136;2024-03-08T13:24:03;0.45;67.09
66026;SHT31;56312;55.976;37.136;2024-03-08T13:29:09;0.44;67.01
66026;SHT31;56312;55.976;37.136;2024-03-08T13:34:15;0.30;67.01
66026;SHT31;56312;55.976;37.136;2024-03-08T13:39:21;0.10;67.07
66026;SHT31;56312;55.976;37.136;2024-03-08T13:44:30;0.09;67.22
66026;SHT31;56312;55.976;37.136;2024-03-08T13:49:36;0.10;67.39
66026;SHT31;56312;55.976;37.136;2024-03-08T13:54:45;0.16;67.46
66026;SHT31;56312;55.976;37.136;2024-03-08T13:59:51;0.18;67.55
66026;SHT31;56312;55.976;37.136;2024-03-08T14:04:57;0.18;67.56
66026;SHT31;56312;55.976;37.136;2024-03-08T14:10:05;0.17;67.58
66026;SHT31;56312;55.976;37.136;2024-03-08T14:15:12;0.11;67.62
66026;SHT31;56312;55.976;37.136;2024-03-08T14:20:18;0.06;67.68
66026;SHT31;56312;55.976;37.136;2024-03-08T14:25:24;0.00;67.81
66026;SHT31;56312;55.976;37.136;2024-03-08T14:30:30;-0.10;67.88
66026;SHT31;56312;55.976;37.136;2024-03-08T14:35:43;-0.12;67.98
66026;SHT31;56312;55.976;37.136;2024-03-08T14:40:49;-0.10;67.97
66026;SHT31;56312;55.976;37.136;2024-03-08T14:45:56;-0.28;67.86
66026;SHT31;56312;55.976;37.136;2024-03-08T14:51:02;-0.42;67.94
66026;SHT31;56312;55.976;37.136;2024-03-08T14:56:10;-0.59;67.86
66026;SHT31;56312;55.976;37.136;2024-03-08T15:01:18;-0.76;67.89
66026;SHT31;56312;55.976;37.136;2024-03-08T15:06:29;-0.91;67.95
66026;SHT31;56312;55.976;37.136;2024-03-08T15:11:38;-1.05;67.91
66026;SHT31;56312;55.976;37.136;2024-03-08T15:16:45;-1.22;67.94
66026;SHT31;56312;55.976;37.136;2024-03-08T15:21:53;-1.32;68.04
66026;SHT31;56312;55.976;37.136;2024-03-08T15:27:02;-1.35;68.09
66026;SHT31;56312;55.976;37.136;2024-03-08T15:32:09;-1.28;68.31
66026;SHT31;56312;55.976;37.136;2024-03-08T15:37:18;-1.25;68.29
66026;SHT31;56312;55.976;37.136;2024-03-08T15:42:24;-1.28;68.28
66026;SHT31;56312;55.976;37.136;2024-03-08T15:47:31;-1.30;68.38
66026;SHT31;56312;55.976;37.136;2024-03-08T15:52:38;-1.19;68.47
66026;SHT31;56312;55.976;37.136;2024-03-08T15:57:47;-1.28;68.40
66026;SHT31;56312;55.976;37.136;2024-03-08T16:02:56;-1.45;68.44
66026;SHT31;56312;55.976;37.136;2024-03-08T16:08:03;-1.48;68.46
66026;SHT31;56312;55.976;37.136;2024-03-08T16:13:09;-1.60;68.42
66026;SHT31;56312;55.976;37.136;2024-03-08T16:18:16;-1.69;68.49
66026;SHT31;56312;55.976;37.136;2024-03-08T16:23:23;-1.73;68.61
66026;SHT31;56312;55.976;37.136;2024-03-08T16:28:29;-1.73;68.66
66026;SHT31;56312;55.976;37.136;2024-03-08T16:33:43;-1.74;68.77
66026;SHT31;56312;55.976;37.136;2024-03-08T16:38:50;-1.67;68.83
66026;SHT31;56312;55.976;37.136;2024-03-08T16:43:56;-1.53;68.96
66026;SHT31;56312;55.976;37.136;2024-03-08T16:49:02;-1.39;69.04
66026;SHT31;56312;55.976;37.136;2024-03-08T16:54:10;-1.27;69.14
66026;SHT31;56312;55.976;37.136;2024-03-08T16:59:17;-1.18;69.20
66026;SHT31;56312;55.976;37.136;2024-03-08T17:04:23;-1.15;69.22
66026;SHT31;56312;55.976;37.136;2024-03-08T17:09:32;-1.28;69.12
66026;SHT31;56312;55.976;37.136;2024-03-08T17:14:39;-1.34;69.07
66026;SHT31;56312;55.976;37.136;2024-03-08T17:19:45;-1.36;69.17
66026;SHT31;56312;55.976;37.136;2024-03-08T17:24:51;-1.41;69.21
66026;SHT31;56312;55.976;37.136;2024-03-08T17:30:00;-1.41;69.31
66026;SHT31;56312;55.976;37.136;2024-03-08T17:35:12;-1.39;69.45
66026;SHT31;56312;55.976;37.136;2024-03-08T17:40:18;-1.45;69.54
66026;SHT31;56312;55.976;37.136;2024-03-08T17:45:27;-1.38;69.73
66026;SHT31;56312;55.976;37.136;2024-03-08T17:50:35;-1.36;69.80
66026;SHT31;56312;55.976;37.136;2024-03-08T17:55:41;-1.46;69.75
66026;SHT31;56312;55.976;37.136;2024-03-08T18:00:48;-1.52;69.86
66026;SHT31;56312;55.976;37.136;2024-03-08T18:05:57;-1.60;69.86
66026;SHT31;56312;55.976;37.136;2024-03-08T18:11:03;-1.69;69.91
66026;SHT31;56312;55.976;37.136;2024-03-08T18:16:09;-1.73;69.99
66026;SHT31;56312;55.976;37.136;2024-03-08T18:21:18;-1.74;70.06
66026;SHT31;56312;55.976;37.136;2024-03-08T18:26:24;-1.77;70.07
66026;SHT31;56312;55.976;37.136;2024-03-08T18:31:31;-1.82;70.10
66026;SHT31;56312;55.976;37.136;2024-03-08T18:36:37;-1.82;70.21
66026;SHT31;56312;55.976;37.136;2024-03-08T18:41:44;-1.80;70.26
66026;SHT31;56312;55.976;37.136;2024-03-08T18:46:51;-1.76;70.31
66026;SHT31;56312;55.976;37.136;2024-03-08T18:52:02;-1.76;70.34
66026;SHT31;56312;55.976;37.136;2024-03-08T18:57:08;-1.77;70.32
66026;SHT31;56312;55.976;37.136;2024-03-08T19:02:16;-1.73;70.40
66026;SHT31;56312;55.976;37.136;2024-03-08T19:07:22;-1.73;70.34
66026;SHT31;56312;55.976;37.136;2024-03-08T19:12:28;-1.72;70.32
66026;SHT31;56312;55.976;37.136;2024-03-08T19:17:37;-1.66;70.37
66026;SHT31;56312;55.976;37.136;2024-03-08T19:22:47;-1.58;70.36
66026;SHT31;56312;55.976;37.136;2024-03-08T19:27:57;-1.52;70.33
66026;SHT31;56312;55.976;37.136;2024-03-08T19:33:06;-1.52;70.25
66026;SHT31;56312;55.976;37.136;2024-03-08T19:38:17;-1.51;70.19
66026;SHT31;56312;55.976;37.136;2024-03-08T19:43:23;-1.52;70.15
66026;SHT31;56312;55.976;37.136;2024-03-08T19:48:33;-1.46;70.14
66026;SHT31;56312;55.976;37.136;2024-03-08T19:53:39;-1.52;70.11
66026;SHT31;56312;55.976;37.136;2024-03-08T19:58:45;-1.51;70.08
66026;SHT31;56312;55.976;37.136;2024-03-08T20:03:53;-1.53;70.11
66026;SHT31;56312;55.976;37.136;2024-03-08T20:08:59;-1.52;70.15
66026;SHT31;56312;55.976;37.136;2024-03-08T20:14:05;-1.48;70.13
66026;SHT31;56312;55.976;37.136;2024-03-08T20:19:13;-1.46;70.03
66026;SHT31;56312;55.976;37.136;2024-03-08T20:24:19;-1.46;69.97
66026;SHT31;56312;55.976;37.136;2024-03-08T20:29:26;-1.44;69.91
66026;SHT31;56312;55.976;37.136;2024-03-08T20:34:32;-1.49;69.86
66026;SHT31;56312;55.976;37.136;2024-03-08T20:39:40;-1.53;69.72
66026;SHT31;56312;55.976;37.136;2024-03-08T20:44:46;-1.67;69.57
66026;SHT31;56312;55.976;37.136;2024-03-08T20:49:52;-1.76;69.49
66026;SHT31;56312;55.976;37.136;2024-03-08T20:54:58;-1.74;69.45
66026;SHT31;56312;55.976;37.136;2024-03-08T21:00:04;-1.73;69.32
66026;SHT31;56312;55.976;37.136;2024-03-08T21:05:11;-1.73;69.19
66026;SHT31;56312;55.976;37.136;2024-03-08T21:10:17;-1.77;69.11
66026;SHT31;56312;55.976;37.136;2024-03-08T21:15:23;-1.80;69.01
66026;SHT31;56312;55.976;37.136;2024-03-08T21:20:29;-1.84;68.94
66026;SHT31;56312;55.976;37.136;2024-03-08T21:25:36;-1.90;68.86
66026;SHT31;56312;55.976;37.136;2024-03-08T21:30:43;-1.95;68.72
66026;SHT31;56312;55.976;37.136;2024-03-08T21:35:51;-1.95;68.64
66026;SHT31;56312;55.976;37.136;2024-03-08T21:40:56;-2.01;68.53
66026;SHT31;56312;55.976;37.136;2024-03-08T21:46:04;-1.97;68.50
66026;SHT31;56312;55.976;37.136;2024-03-08T21:51:10;-1.97;68.43
66026;SHT31;56312;55.976;37.136;2024-03-08T21:56:17;-1.97;68.30
66026;SHT31;56312;55.976;37.136;2024-03-08T22:01:23;-2.00;68.21
66026;SHT31;56312;55.976;37.136;2024-03-08T22:06:29;-2.04;68.12
66026;SHT31;56312;55.976;37.136;2024-03-08T22:11:35;-2.04;68.10
66026;SHT31;56312;55.976;37.136;2024-03-08T22:16:42;-2.07;68.02
66026;SHT31;56312;55.976;37.136;2024-03-08T22:21:48;-2.10;67.97
66026;SHT31;56312;55.976;37.136;2024-03-08T22:26:55;-2.12;67.88
66026;SHT31;56312;55.976;37.136;2024-03-08T22:32:02;-2.20;67.81
66026;SHT31;56312;55.976;37.136;2024-03-08T22:37:08;-2.17;67.80
66026;SHT31;56312;55.976;37.136;2024-03-08T22:42:19;-2.21;67.72
66026;SHT31;56312;55.976;37.136;2024-03-08T22:47:25;-2.25;67.74
66026;SHT31;56312;55.976;37.136;2024-03-08T22:52:31;-2.25;67.65
66026;SHT31;56312;55.976;37.136;2024-03-08T22:57:38;-2.28;67.61
66026;SHT31;56312;55.976;37.136;2024-03-08T23:02:45;-2.31;67.60
66026;SHT31;56312;55.976;37.136;2024-03-08T23:07:52;-2.32;67.54
66026;SHT31;56312;55.976;37.136;2024-03-08T23:12:58;-2.35;67.50
66026;SHT31;56312;55.976;37.136;2024-03-08T23:18:04;-2.34;67.48
66026;SHT31;56312;55.976;37.136;2024-03-08T23:23:15;-2.32;67.45
66026;SHT31;56312;55.976;37.136;2024-03-08T23:28:21;-2.35;67.40
66026;SHT31;56312;55.976;37.136;2024-03-08T23:33:27;-2.41;67.37
66026;SHT31;56312;55.976;37.136;2024-03-08T23:38:33;-2.44;67.32
66026;SHT31;56312;55.976;37.136;2024-03-08T23:43:40;-2.45;67.28
66026;SHT31;56312;55.976;37.136;2024-03-08T23:48:49;-2.46;67.23
66026;SHT31;56312;55.976;37.136;2024-03-08T23:53:55;-2.46;67.24
66026;SHT31;56312;55.976;37.136;2024-03-08T23:59:01;-2.52;67.16
